Accueil
METAR-TAF:

METAR-TAF

Aéroports :

Aéroport régional Les Éplatures

La Chaux-de-Fonds, Suisse

latitude: 47-05-03N, longitude: 006-47-37E, altitude: 1027 m

Observation

Le bulletin a été fait il y a 24 minutes, à 10:20 UTC
Vent 5 kt de nord-est, variant entre nord/nord-est et est
Température 17°C
Humidité 77%
Pression 1025 hPa
Visibilité 10 km ou plus
Nuages fragmentés à une hauteur de 2600 ft
Nuages épars à une hauteur de 3100 ft

METAR: LSGC 181020Z AUTO 05005KT 020V100 9999 BKN026 SCT031 17/13 Q1025

Heure: 12:44 (10:44 UTC)

Prévision

Le bulletin a été fait il y a 2 heures et 19 minutes, à 08:25 UTC
Prévision valable du 18 à 09 UTC au 18 à 18 UTC
Vent 8 kt de nord-est
Visibilité 10 km ou plus
Nuages épars à une hauteur de 1500 ft

TAF: LSGC 180825Z 1809/1818 05008KT 9999 SCT015

Observations et prévisions météorologiques de plus de 4000 aéroports (messages METAR et TAF).

Les stations disponibles sont représentées par des disques jaunes et rouges sur la carte.

Passer la souris dessus pour voir le nom de la station.

Cliquer dessus pour voir les observations et prévisions météorologiques.

Pour changer de carte: cliquez sur les boutons verts avec une croix noire pour zoomer, sur le bouton vert avec un tiret pour effectuer un zoom arrière, ou sur les flèches vertes pour les cartes adjacentes.


METAR-TAF: